F/V Atalante — FVRQ — position and weather

sailwx.info

Track history (hours):
 
Tides and Currents Weather Stations Pressure Air Temp Water Temp Dewpoint Dewpoint Depression Visibility Wind Speed Wind Dir Waves Ship Positions

F/V Atalante

Last reported at 2014-Sep-16 08:34 UTC. Time now 2014-Sep-16 21:35 UTC.
Position N 47°30' W 003°31'.

Length 21 m; draft 3.9 m.

Type: . MMSI: 228854000.

Date/timePositionNaut miles runAvg speedWind from/ knotsBaromVisibWave heightAir tempDewpointWater temp
2014-Sep-16 08:34N 47°30' W 003°31'12 4.0
2014-Sep-16 05:29N 47°26' W 003°14'1010.2
2014-Sep-16 04:33N 47°21' W 003°02'1010.1
2014-Sep-16 03:33N 47°18' W 002°48'9 0.4
2014-Sep-15 05:33N 47°20' W 003°00'9 9.3
2014-Sep-15 04:33N 47°18' W 002°47'6 0.9
2014-Sep-14 21:32N 47°24' W 002°50'30 9.9
2014-Sep-14 18:28N 47°35' W 003°32'1 1.1
2014-Sep-14 17:10N 47°36' W 003°34'3 3.6
2014-Sep-14 16:28N 47°34' W 003°31'1 1.3
2014-Sep-14 15:32N 47°35' W 003°33'0 0.3
2014-Sep-14 14:16N 47°34' W 003°33'1 1.4
2014-Sep-14 13:09N 47°35' W 003°34'3 1.2
2014-Sep-14 10:32N 47°34' W 003°30'69 8.6
2014-Sep-14 02:33N 47°56' W 005°06'9 8.9
2014-Sep-14 01:33N 47°59' W 005°19'76 6.9
2014-Sep-13 14:32N 47°34' W 003°32'10 9.8
2014-Sep-13 13:33N 47°29' W 003°20'1010.2
2014-Sep-13 12:32N 47°23' W 003°07'1010.2
2014-Sep-13 11:31N 47°18' W 002°54'1010.0
2014-Sep-13 10:30N 47°19' W 002°39'6 0.1
2014-Sep-11 20:09N 47°23' W 002°45'610.1
2014-Sep-11 19:33N 47°25' W 002°54'14 9.8
2014-Sep-11 18:06N 47°29' W 003°14'11 3.2
2014-Sep-11 14:32N 47°31' W 003°30'21 2.1
2014-Sep-11 04:33N 47°21' W 003°02'10 9.5
2014-Sep-11 03:31N 47°18' W 002°48'100 3.3
2014-Sep-09 21:15N 47°42' W 005°12'19 9.8
2014-Sep-09 19:21N 47°59' W 005°23'12 1.9
2014-Sep-09 13:11N 47°48' W 005°16'95 3.0
2014-Sep-08 05:33N 47°20' W 003°01'10 9.6
2014-Sep-08 04:32N 47°17' W 002°47'3 0.5
2014-Sep-07 21:33N 47°18' W 002°43'9 8.9
2014-Sep-07 20:33N 47°19' W 002°56'9 8.8
2014-Sep-07 19:33N 47°23' W 003°08'10 2.4
2014-Sep-07 15:33N 47°25' W 003°21'1 1.1
2014-Sep-07 14:14N 47°26' W 003°23'1 1.2
2014-Sep-07 13:33N 47°26' W 003°22'5 0.9
2014-Sep-07 08:19N 47°28' W 003°28'2 2.2
2014-Sep-07 07:33N 47°28' W 003°25'0 0.2
2014-Sep-07 06:33N 47°28' W 003°26'13 8.8
2014-Sep-07 05:05N 47°23' W 003°08'5 9.2
2014-Sep-07 04:33N 47°21' W 003°02'9 8.8
2014-Sep-07 03:32N 47°17' W 002°49'10 9.7
2014-Sep-07 02:33N 47°20' W 002°36'  
Track history (hours):
 
Tides and Currents Weather Stations Pressure Air Temp Water Temp Dewpoint Dewpoint Depression Visibility Wind Speed Wind Dir Waves Ship Positions

F/V Atalante

Last reported at 2014-Sep-16 08:34 UTC. Time now 2014-Sep-16 21:35 UTC.
Position N 47°30' W 003°31'.

Length 21 m; draft 3.9 m.

Type: . MMSI: 228854000.

Date/timePositionNaut miles runAvg speedWind from/ knotsBaromVisibWave heightAir tempDewpointWater temp
2014-Sep-16 08:34N 47°30' W 003°31'12 4.0
2014-Sep-16 05:29N 47°26' W 003°14'1010.2
2014-Sep-16 04:33N 47°21' W 003°02'1010.1
2014-Sep-16 03:33N 47°18' W 002°48'9 0.4
2014-Sep-15 05:33N 47°20' W 003°00'9 9.3
2014-Sep-15 04:33N 47°18' W 002°47'6 0.9
2014-Sep-14 21:32N 47°24' W 002°50'30 9.9
2014-Sep-14 18:28N 47°35' W 003°32'1 1.1
2014-Sep-14 17:10N 47°36' W 003°34'3 3.6
2014-Sep-14 16:28N 47°34' W 003°31'1 1.3
2014-Sep-14 15:32N 47°35' W 003°33'0 0.3
2014-Sep-14 14:16N 47°34' W 003°33'1 1.4
2014-Sep-14 13:09N 47°35' W 003°34'3 1.2
2014-Sep-14 10:32N 47°34' W 003°30'69 8.6
2014-Sep-14 02:33N 47°56' W 005°06'9 8.9
2014-Sep-14 01:33N 47°59' W 005°19'76 6.9
2014-Sep-13 14:32N 47°34' W 003°32'10 9.8
2014-Sep-13 13:33N 47°29' W 003°20'1010.2
2014-Sep-13 12:32N 47°23' W 003°07'1010.2
2014-Sep-13 11:31N 47°18' W 002°54'1010.0
2014-Sep-13 10:30N 47°19' W 002°39'6 0.1
2014-Sep-11 20:09N 47°23' W 002°45'610.1
2014-Sep-11 19:33N 47°25' W 002°54'14 9.8
2014-Sep-11 18:06N 47°29' W 003°14'11 3.2
2014-Sep-11 14:32N 47°31' W 003°30'21 2.1
2014-Sep-11 04:33N 47°21' W 003°02'10 9.5
2014-Sep-11 03:31N 47°18' W 002°48'100 3.3
2014-Sep-09 21:15N 47°42' W 005°12'19 9.8
2014-Sep-09 19:21N 47°59' W 005°23'12 1.9
2014-Sep-09 13:11N 47°48' W 005°16'95 3.0
2014-Sep-08 05:33N 47°20' W 003°01'10 9.6
2014-Sep-08 04:32N 47°17' W 002°47'3 0.5
2014-Sep-07 21:33N 47°18' W 002°43'9 8.9
2014-Sep-07 20:33N 47°19' W 002°56'9 8.8
2014-Sep-07 19:33N 47°23' W 003°08'10 2.4
2014-Sep-07 15:33N 47°25' W 003°21'1 1.1
2014-Sep-07 14:14N 47°26' W 003°23'1 1.2
2014-Sep-07 13:33N 47°26' W 003°22'5 0.9
2014-Sep-07 08:19N 47°28' W 003°28'2 2.2
2014-Sep-07 07:33N 47°28' W 003°25'0 0.2
2014-Sep-07 06:33N 47°28' W 003°26'13 8.8
2014-Sep-07 05:05N 47°23' W 003°08'5 9.2
2014-Sep-07 04:33N 47°21' W 003°02'9 8.8
2014-Sep-07 03:32N 47°17' W 002°49'10 9.7
2014-Sep-07 02:33N 47°20' W 002°36'  

Dump ship's entire track history